Time;durP1;ratioP1;P1;durP2;ratioP2;P2;SDS_P1;SDS_P2;PMS_P1;PMS_P2;Temp;Humidity;BMP_temperature;BMP_pressure;BME280_temperature;BME280_humidity;BME280_pressure;Samples;Min_cycle;Max_cycle;Signal;HPM_P1;HPM_P2
2022/09/02 00:02:11;;;;;;;1.40;1.00;;;15.30;99.90;;;;;;4998580;28;20236;-49
2022/09/02 00:04:39;;;;;;;2.53;0.97;;;15.30;99.90;;;;;;5000000;28;20229;-49
2022/09/02 00:07:07;;;;;;;1.30;0.83;;;15.30;99.90;;;;;;5000517;28;20571;-50
2022/09/02 00:09:36;;;;;;;1.17;0.93;;;15.30;99.90;;;;;;4998061;28;20237;-48
2022/09/02 00:12:05;;;;;;;1.33;0.87;;;15.30;99.90;;;;;;4999818;28;21095;-49
2022/09/02 00:14:37;;;;;;;1.00;0.90;;;15.30;99.90;;;;;;5000938;28;20234;-47
2022/09/02 00:17:05;;;;;;;1.47;1.00;;;15.30;99.90;;;;;;5000243;28;20230;-50
2022/09/02 00:19:35;;;;;;;1.17;1.07;;;15.20;99.90;;;;;;4998891;28;20364;-47
2022/09/02 00:22:03;;;;;;;1.20;1.10;;;15.20;99.90;;;;;;4998490;28;20291;-49
2022/09/02 00:24:32;;;;;;;1.00;0.73;;;15.20;99.90;;;;;;4998057;28;20260;-48
2022/09/02 00:27:00;;;;;;;1.10;1.00;;;15.20;99.90;;;;;;5000258;28;20783;-50
2022/09/02 00:29:29;;;;;;;1.27;0.90;;;15.20;99.90;;;;;;4999286;28;20247;-48
2022/09/02 00:31:57;;;;;;;1.47;0.73;;;15.10;99.90;;;;;;4998589;28;20241;-49
2022/09/02 00:34:26;;;;;;;0.80;0.80;;;15.10;99.90;;;;;;5000231;28;20619;-51
2022/09/02 00:36:56;;;;;;;0.90;0.80;;;15.10;99.90;;;;;;5000782;28;20225;-50
2022/09/02 00:39:24;;;;;;;0.90;0.90;;;15.00;99.90;;;;;;4997746;28;20230;-47
2022/09/02 00:41:53;;;;;;;2.83;1.10;;;15.00;99.90;;;;;;4998026;28;20251;-48
2022/09/02 00:44:21;;;;;;;2.10;0.80;;;15.00;99.90;;;;;;5003798;28;20234;-48
2022/09/02 00:46:49;;;;;;;2.00;0.90;;;15.00;99.90;;;;;;5001422;28;20319;-47
2022/09/02 00:49:23;;;;;;;2.33;0.83;;;14.90;99.90;;;;;;5016487;28;20229;-48
2022/09/02 00:51:55;;;;;;;1.07;0.80;;;14.90;99.90;;;;;;5000595;28;20233;-47
2022/09/02 00:54:26;;;;;;;0.80;0.80;;;14.80;99.90;;;;;;5003663;28;20320;-50
2022/09/02 00:56:55;;;;;;;0.70;0.70;;;14.80;99.90;;;;;;5004126;28;20236;-47
2022/09/02 00:59:30;;;;;;;0.73;0.73;;;14.80;99.90;;;;;;5002050;28;20255;-48
2022/09/02 01:01:58;;;;;;;1.47;0.90;;;14.80;99.90;;;;;;4998126;28;20336;-50
2022/09/02 01:04:28;;;;;;;1.33;0.90;;;14.80;99.90;;;;;;5032468;28;20248;-48
2022/09/02 01:06:56;;;;;;;0.87;0.77;;;14.80;99.90;;;;;;5003986;28;20292;-49
2022/09/02 01:09:25;;;;;;;1.70;0.83;;;14.70;99.90;;;;;;5000248;28;20237;-49
2022/09/02 01:11:54;;;;;;;1.03;0.80;;;14.70;99.90;;;;;;5000677;28;20754;-48
2022/09/02 01:14:22;;;;;;;1.50;0.90;;;14.60;99.90;;;;;;5001928;28;20311;-49
2022/09/02 01:16:59;;;;;;;0.70;0.70;;;14.50;99.90;;;;;;5002846;28;20218;-49
2022/09/02 01:19:32;;;;;;;0.93;0.83;;;14.50;99.90;;;;;;5002882;28;20229;-48
2022/09/02 01:22:02;;;;;;;0.80;0.77;;;14.50;99.90;;;;;;4999629;28;20728;-47
2022/09/02 01:24:33;;;;;;;0.70;0.70;;;14.50;99.90;;;;;;5002578;28;20233;-47
2022/09/02 01:27:01;;;;;;;1.00;0.90;;;14.40;99.90;;;;;;5002653;28;20265;-48
2022/09/02 01:29:29;;;;;;;1.00;1.00;;;14.40;99.90;;;;;;5000822;28;20669;-48
2022/09/02 01:31:58;;;;;;;1.97;0.87;;;14.30;99.90;;;;;;5000372;28;21061;-46
2022/09/02 01:34:26;;;;;;;0.80;0.80;;;14.40;99.90;;;;;;5001191;28;20233;-47
2022/09/02 01:36:54;;;;;;;0.87;0.87;;;14.30;99.90;;;;;;5001128;28;20231;-49
2022/09/02 01:39:23;;;;;;;1.23;0.90;;;14.30;99.90;;;;;;5000986;28;20233;-49
2022/09/02 01:41:52;;;;;;;1.53;0.90;;;14.20;99.90;;;;;;4998772;28;20248;-47
2022/09/02 01:44:20;;;;;;;1.57;1.00;;;14.20;99.90;;;;;;5003836;28;20225;-50
2022/09/02 01:46:50;;;;;;;2.10;0.90;;;14.20;99.90;;;;;;5001830;28;20236;-48
2022/09/02 01:49:18;;;;;;;1.37;0.90;;;14.20;99.90;;;;;;5001290;28;21011;-49
2022/09/02 01:51:47;;;;;;;1.43;0.83;;;14.20;99.90;;;;;;4996884;28;20670;-50
2022/09/02 01:54:16;;;;;;;0.97;0.87;;;14.20;99.90;;;;;;5018680;28;20225;-48
2022/09/02 01:56:45;;;;;;;0.80;0.80;;;14.20;99.90;;;;;;5000916;28;20308;-47
2022/09/02 01:59:16;;;;;;;1.47;1.07;;;14.20;99.90;;;;;;5033859;28;20636;-50
2022/09/02 02:01:45;;;;;;;1.17;0.93;;;14.10;99.90;;;;;;5000721;28;20330;-48
2022/09/02 02:04:15;;;;;;;0.80;0.80;;;14.10;99.90;;;;;;5033696;28;20232;-48
2022/09/02 02:06:47;;;;;;;1.73;1.00;;;14.10;99.90;;;;;;5017327;28;20689;-47
2022/09/02 02:09:19;;;;;;;1.00;0.90;;;14.10;99.90;;;;;;4999970;28;20233;-49
2022/09/02 02:11:49;;;;;;;1.83;0.93;;;14.10;99.90;;;;;;5030310;28;20303;-48
2022/09/02 02:14:17;;;;;;;1.50;1.03;;;14.10;99.90;;;;;;5002414;28;20234;-50
2022/09/02 02:16:48;;;;;;;1.00;0.83;;;14.10;99.90;;;;;;4998394;28;20234;-48
2022/09/02 02:19:18;;;;;;;1.30;0.83;;;14.00;99.90;;;;;;4999524;28;20239;-48
2022/09/02 02:21:47;;;;;;;1.10;1.00;;;14.00;99.90;;;;;;4998355;28;20237;-50
2022/09/02 02:24:15;;;;;;;1.00;1.00;;;14.00;99.90;;;;;;5018890;28;20236;-48
2022/09/02 02:26:43;;;;;;;0.80;0.80;;;14.00;99.90;;;;;;5001838;28;20247;-49
2022/09/02 02:29:13;;;;;;;1.20;1.10;;;14.00;99.90;;;;;;5001682;28;20230;-46
2022/09/02 02:31:42;;;;;;;1.17;0.90;;;14.00;99.90;;;;;;4998858;28;20717;-48
2022/09/02 02:34:12;;;;;;;1.40;0.90;;;14.00;99.90;;;;;;5034685;28;21462;-48
2022/09/02 02:36:42;;;;;;;1.50;0.87;;;14.00;99.90;;;;;;5001158;28;20268;-49
2022/09/02 02:39:11;;;;;;;1.17;1.00;;;14.00;99.90;;;;;;5033130;28;20669;-49
2022/09/02 02:41:41;;;;;;;1.30;1.00;;;13.90;99.90;;;;;;4998009;28;20241;-46
2022/09/02 02:44:14;;;;;;;0.87;0.87;;;13.90;99.90;;;;;;5001209;28;20247;-47
2022/09/02 02:46:43;;;;;;;2.00;1.07;;;14.00;99.90;;;;;;5001868;28;20241;-47
2022/09/02 02:49:12;;;;;;;0.80;0.80;;;14.00;99.90;;;;;;4999685;28;20236;-47
2022/09/02 02:51:41;;;;;;;1.30;0.90;;;14.00;99.90;;;;;;5029584;28;20321;-47
2022/09/02 02:54:10;;;;;;;1.93;1.00;;;14.00;99.90;;;;;;5018456;28;20253;-48
2022/09/02 02:56:38;;;;;;;1.07;0.90;;;14.00;99.90;;;;;;4999985;28;20271;-47
2022/09/02 02:59:07;;;;;;;1.10;1.00;;;14.00;99.90;;;;;;5031171;28;20324;-49
2022/09/02 03:01:37;;;;;;;0.90;0.90;;;14.00;99.90;;;;;;4997175;28;20726;-48
2022/09/02 03:04:08;;;;;;;1.27;0.90;;;14.00;99.90;;;;;;5031747;28;20241;-47
2022/09/02 03:06:36;;;;;;;1.00;1.00;;;14.00;99.90;;;;;;5032983;28;20319;-49
2022/09/02 03:09:05;;;;;;;1.00;0.80;;;14.00;99.90;;;;;;5000059;28;20230;-48
2022/09/02 03:11:35;;;;;;;1.23;1.00;;;14.00;99.90;;;;;;4995437;28;20248;-46
2022/09/02 03:14:04;;;;;;;2.47;1.10;;;13.90;99.90;;;;;;5016827;28;20229;-48
2022/09/02 03:16:36;;;;;;;2.27;1.10;;;13.90;99.90;;;;;;5015683;28;20222;-49
2022/09/02 03:19:04;;;;;;;1.57;0.90;;;13.90;99.90;;;;;;4996056;28;20261;-47
2022/09/02 03:21:32;;;;;;;1.53;1.10;;;13.90;99.90;;;;;;4996857;28;20263;-49
2022/09/02 03:24:08;;;;;;;2.83;1.00;;;13.90;99.90;;;;;;5016978;28;20252;-47
2022/09/02 03:26:37;;;;;;;2.33;1.00;;;13.90;99.90;;;;;;5015417;28;20620;-47
2022/09/02 03:29:06;;;;;;;4.10;1.10;;;13.90;99.90;;;;;;4999133;28;20226;-49
2022/09/02 03:31:36;;;;;;;1.27;1.00;;;13.90;99.90;;;;;;4997021;28;20234;-50
2022/09/02 03:34:04;;;;;;;1.37;0.93;;;14.00;99.90;;;;;;5000449;28;20257;-50
2022/09/02 03:36:38;;;;;;;1.63;1.10;;;14.00;99.90;;;;;;5000465;28;20596;-49
2022/09/02 03:39:09;;;;;;;3.07;1.30;;;13.80;99.90;;;;;;4998521;28;20320;-49
2022/09/02 03:41:40;;;;;;;1.50;1.23;;;13.80;99.90;;;;;;5013546;28;20244;-50
2022/09/02 03:44:11;;;;;;;1.27;0.90;;;13.90;99.90;;;;;;5033671;28;20328;-48
2022/09/02 03:46:42;;;;;;;1.97;1.23;;;13.90;99.90;;;;;;5000601;28;20261;-48
2022/09/02 03:49:11;;;;;;;2.43;1.10;;;13.80;99.90;;;;;;5014663;28;20356;-47
2022/09/02 03:51:41;;;;;;;2.23;1.17;;;13.80;99.90;;;;;;4997438;28;20635;-48
2022/09/02 03:54:10;;;;;;;1.43;1.03;;;13.80;99.90;;;;;;4998739;28;20721;-47
2022/09/02 03:56:40;;;;;;;1.30;0.97;;;13.80;99.90;;;;;;5015579;28;21347;-47
2022/09/02 03:59:09;;;;;;;3.07;1.10;;;13.80;99.90;;;;;;4996556;28;20237;-48
2022/09/02 04:01:40;;;;;;;1.10;1.00;;;13.80;99.90;;;;;;4995291;28;20732;-50
2022/09/02 04:04:09;;;;;;;1.50;1.00;;;13.80;99.90;;;;;;4999007;28;20733;-48
2022/09/02 04:06:39;;;;;;;2.27;1.10;;;13.90;99.90;;;;;;4998052;28;20233;-48
2022/09/02 04:09:07;;;;;;;2.30;1.10;;;13.80;99.90;;;;;;4996993;28;20229;-48
2022/09/02 04:11:41;;;;;;;1.83;1.03;;;14.00;99.90;;;;;;5011356;28;21342;-47
2022/09/02 04:14:11;;;;;;;1.23;1.10;;;13.90;99.90;;;;;;5001379;28;20255;-49
2022/09/02 04:16:41;;;;;;;1.47;1.20;;;13.80;99.90;;;;;;5017742;28;20233;-49
2022/09/02 04:19:09;;;;;;;1.20;1.00;;;13.70;99.90;;;;;;5001708;28;20705;-48
2022/09/02 04:21:40;;;;;;;3.30;1.27;;;13.70;99.90;;;;;;5000424;28;20328;-47
2022/09/02 04:24:11;;;;;;;2.23;1.20;;;13.60;99.90;;;;;;5037033;28;20240;-47
2022/09/02 04:26:43;;;;;;;1.23;1.13;;;13.70;99.90;;;;;;5019391;28;20243;-47
2022/09/02 04:29:14;;;;;;;2.20;1.10;;;13.70;99.90;;;;;;5018253;28;20798;-49
2022/09/02 04:31:45;;;;;;;2.20;0.97;;;13.80;99.90;;;;;;5032618;28;20743;-47
2022/09/02 04:34:13;;;;;;;2.40;1.10;;;13.70;99.90;;;;;;5019930;28;20638;-47
2022/09/02 04:36:42;;;;;;;1.60;1.23;;;13.70;99.90;;;;;;5018838;28;20661;-49
2022/09/02 04:39:12;;;;;;;1.23;1.10;;;13.80;99.90;;;;;;5018487;28;20236;-49
2022/09/02 04:41:41;;;;;;;1.33;1.20;;;13.70;99.90;;;;;;5033140;28;20241;-48
2022/09/02 04:44:11;;;;;;;1.37;1.03;;;13.80;99.90;;;;;;5001968;28;20595;-48
2022/09/02 04:46:43;;;;;;;1.60;1.50;;;13.70;99.90;;;;;;5004678;28;20311;-48
2022/09/02 04:49:17;;;;;;;2.90;1.37;;;13.80;99.90;;;;;;5032862;28;20303;-47
2022/09/02 04:51:46;;;;;;;1.30;1.20;;;13.80;99.90;;;;;;4999864;28;20244;-48
2022/09/02 04:54:14;;;;;;;2.00;1.40;;;13.80;99.90;;;;;;5019065;28;20245;-47
2022/09/02 04:56:46;;;;;;;1.80;1.23;;;13.80;99.90;;;;;;5001144;28;20600;-49
2022/09/02 04:59:15;;;;;;;1.77;1.20;;;13.70;99.90;;;;;;5018379;28;20236;-49
2022/09/02 05:01:51;;;;;;;2.43;1.30;;;13.70;99.90;;;;;;4999212;28;20263;-48
2022/09/02 05:04:26;;;;;;;2.03;1.27;;;13.80;99.90;;;;;;5002800;28;20252;-48
2022/09/02 05:06:54;;;;;;;1.50;1.40;;;13.80;99.90;;;;;;5002147;28;20233;-49
2022/09/02 05:09:23;;;;;;;1.97;1.37;;;13.80;99.90;;;;;;5017345;28;20328;-48
2022/09/02 05:11:57;;;;;;;1.70;1.40;;;13.90;99.90;;;;;;4997540;28;20228;-50
2022/09/02 05:14:29;;;;;;;1.70;1.30;;;13.80;99.90;;;;;;5018799;28;20807;-48
2022/09/02 05:17:00;;;;;;;1.67;1.30;;;13.80;99.90;;;;;;5031769;28;20237;-48
2022/09/02 05:19:37;;;;;;;3.30;1.43;;;13.80;99.90;;;;;;4996115;28;20249;-47
2022/09/02 05:22:06;;;;;;;1.77;1.50;;;13.90;99.90;;;;;;5012454;28;20232;-47
2022/09/02 05:24:38;;;;;;;3.30;1.70;;;14.00;99.90;;;;;;5017685;28;20241;-49
2022/09/02 05:27:09;;;;;;;1.97;1.70;;;14.00;99.90;;;;;;5001954;28;20464;-49
2022/09/02 05:29:37;;;;;;;1.60;1.40;;;14.10;99.90;;;;;;4998619;28;20232;-50
2022/09/02 05:32:07;;;;;;;1.30;1.20;;;14.20;99.90;;;;;;5001235;28;20755;-49
2022/09/02 05:34:40;;;;;;;3.37;1.50;;;14.20;99.90;;;;;;5018546;28;20239;-47
2022/09/02 05:37:09;;;;;;;1.77;1.30;;;14.30;99.90;;;;;;5017623;28;20357;-50
2022/09/02 05:39:37;;;;;;;2.77;1.60;;;14.30;99.90;;;;;;4997439;28;20248;-46
2022/09/02 05:42:07;;;;;;;2.67;1.50;;;14.30;99.90;;;;;;5000183;28;21488;-50
2022/09/02 05:44:36;;;;;;;1.47;1.33;;;14.30;99.90;;;;;;5016942;28;20251;-48
2022/09/02 05:47:06;;;;;;;1.57;1.47;;;14.40;99.90;;;;;;5001122;28;21625;-48
2022/09/02 05:49:34;;;;;;;1.97;1.30;;;14.50;99.90;;;;;;5014907;28;20234;-48
2022/09/02 05:52:13;;;;;;;2.30;1.53;;;14.60;99.90;;;;;;5001473;28;20263;-47
2022/09/02 05:54:48;;;;;;;2.13;1.50;;;14.70;99.90;;;;;;4999556;28;20225;-49
2022/09/02 05:57:21;;;;;;;5.57;1.63;;;14.90;99.90;;;;;;5000698;28;20939;-47
2022/09/02 06:00:03;;;;;;;2.10;1.20;;;15.00;99.90;;;;;;5012669;28;20233;-49
2022/09/02 06:02:43;;;;;;;1.97;1.50;;;15.10;99.90;;;;;;5012991;28;20244;-46
2022/09/02 06:05:19;;;;;;;1.60;1.30;;;15.20;99.90;;;;;;5011899;28;20236;-50
2022/09/02 06:07:55;;;;;;;2.20;1.23;;;15.40;99.90;;;;;;5014891;28;20235;-48
2022/09/02 06:10:24;;;;;;;1.70;1.57;;;15.50;99.90;;;;;;5009607;28;20283;-49
2022/09/02 06:12:53;;;;;;;2.40;1.63;;;15.50;99.90;;;;;;5009221;28;20234;-49
2022/09/02 06:15:26;;;;;;;2.97;1.27;;;15.60;99.90;;;;;;5016975;28;20232;-49
2022/09/02 06:17:58;;;;;;;1.80;1.57;;;15.70;99.90;;;;;;5008345;28;20831;-49
2022/09/02 06:20:31;;;;;;;2.37;1.40;;;16.00;99.90;;;;;;5012233;28;20224;-47
2022/09/02 06:23:01;;;;;;;1.73;1.30;;;16.00;99.90;;;;;;5026235;28;20233;-48
2022/09/02 06:25:29;;;;;;;2.93;1.33;;;16.20;99.90;;;;;;5011580;28;20723;-49
2022/09/02 06:27:58;;;;;;;1.33;1.10;;;16.30;99.90;;;;;;5012947;28;20586;-48
2022/09/02 06:30:34;;;;;;;1.60;1.40;;;16.30;99.90;;;;;;5011792;28;20315;-48
2022/09/02 06:33:03;;;;;;;2.60;1.20;;;16.40;99.90;;;;;;5009050;28;20237;-48
2022/09/02 06:35:36;;;;;;;1.93;1.23;;;16.60;99.90;;;;;;4998057;28;21472;-50
2022/09/02 06:38:07;;;;;;;1.67;1.23;;;16.60;99.90;;;;;;4999981;28;20284;-49
2022/09/02 06:40:35;;;;;;;1.63;1.30;;;16.70;99.90;;;;;;4995871;28;20234;-48
2022/09/02 06:43:04;;;;;;;1.73;1.23;;;17.00;99.90;;;;;;4995566;28;20241;-50
2022/09/02 06:45:39;;;;;;;2.53;1.50;;;17.10;99.90;;;;;;4995321;28;20263;-48
2022/09/02 06:48:09;;;;;;;3.03;1.40;;;17.10;99.90;;;;;;4997793;28;20792;-47
2022/09/02 06:50:40;;;;;;;1.60;1.30;;;17.20;99.90;;;;;;5024683;28;20272;-49
2022/09/02 06:53:11;;;;;;;1.70;1.40;;;17.20;99.90;;;;;;4997556;28;20644;-51
2022/09/02 06:55:42;;;;;;;2.10;1.27;;;17.10;99.90;;;;;;4999014;28;20598;-50
2022/09/02 06:58:12;;;;;;;1.40;1.03;;;17.30;99.90;;;;;;4993266;28;20233;-48
2022/09/02 07:00:42;;;;;;;2.87;1.50;;;17.70;99.90;;;;;;4994012;28;20292;-50
2022/09/02 07:06:08;;;;;;;1.37;1.27;;;17.90;99.90;;;;;;4996148;28;20319;-47
2022/09/02 07:08:41;;;;;;;1.23;1.10;;;17.90;99.90;;;;;;4991834;28;20713;-48
2022/09/02 07:11:17;;;;;;;2.10;1.20;;;18.20;99.90;;;;;;5029776;28;20225;-50
2022/09/02 07:13:47;;;;;;;2.47;1.40;;;18.40;99.90;;;;;;4993427;28;20244;-50
2022/09/02 07:16:18;;;;;;;2.60;1.33;;;18.70;99.90;;;;;;4998607;28;20221;-50
2022/09/02 07:18:55;;;;;;;3.30;1.60;;;18.80;99.90;;;;;;5031959;28;20233;-49
2022/09/02 07:21:24;;;;;;;2.40;1.53;;;18.90;99.90;;;;;;5014639;28;20231;-49
2022/09/02 07:23:54;;;;;;;2.10;1.43;;;18.90;99.90;;;;;;5001140;28;20245;-47
2022/09/02 07:26:23;;;;;;;1.97;1.60;;;18.80;99.90;;;;;;5014890;28;20238;-50
2022/09/02 07:28:53;;;;;;;1.57;1.37;;;19.00;99.90;;;;;;4996480;28;20253;-49
2022/09/02 07:31:23;;;;;;;4.20;1.90;;;19.30;99.90;;;;;;5029607;28;20234;-51
2022/09/02 07:33:57;;;;;;;3.07;1.43;;;19.40;99.90;;;;;;5008364;28;20251;-49
2022/09/02 07:36:26;;;;;;;3.30;1.77;;;19.40;99.90;;;;;;4993099;28;20231;-48
2022/09/02 07:38:57;;;;;;;2.00;1.80;;;19.80;99.90;;;;;;4994240;28;20236;-50
2022/09/02 07:41:25;;;;;;;1.87;1.27;;;19.90;99.90;;;;;;4995019;28;20741;-49
2022/09/02 07:43:54;;;;;;;2.13;1.40;;;20.10;99.90;;;;;;4994424;28;20350;-51
2022/09/02 07:46:30;;;;;;;1.97;1.33;;;20.10;99.90;;;;;;4991533;28;20240;-50
2022/09/02 07:48:58;;;;;;;2.60;1.30;;;20.10;99.90;;;;;;4990813;28;20236;-50
2022/09/02 07:51:27;;;;;;;2.70;1.10;;;20.40;99.90;;;;;;4995945;28;20262;-48
2022/09/02 07:54:00;;;;;;;2.10;1.20;;;20.70;99.90;;;;;;4997977;28;20232;-50
2022/09/02 07:56:29;;;;;;;3.23;1.03;;;20.70;99.90;;;;;;5027091;28;20688;-49
2022/09/02 07:58:57;;;;;;;2.87;1.10;;;20.50;99.90;;;;;;4992956;28;20236;-51
2022/09/02 08:01:26;;;;;;;1.27;1.10;;;20.60;99.90;;;;;;5012394;28;20397;-52
2022/09/02 08:03:55;;;;;;;1.47;1.00;;;20.60;99.90;;;;;;4993318;28;20240;-50
2022/09/02 08:06:32;;;;;;;2.20;1.00;;;20.70;99.90;;;;;;4992785;28;20310;-47
2022/09/02 08:09:05;;;;;;;2.63;1.20;;;20.60;99.90;;;;;;4993659;28;20229;-50
2022/09/02 08:11:37;;;;;;;2.63;1.00;;;20.60;99.90;;;;;;4995079;28;21435;-49
2022/09/02 08:14:07;;;;;;;0.93;0.80;;;20.70;99.90;;;;;;4997202;28;20225;-51
2022/09/02 08:16:37;;;;;;;1.63;1.07;;;20.80;99.90;;;;;;4998439;28;20290;-48
2022/09/02 08:19:07;;;;;;;2.10;1.07;;;21.00;99.90;;;;;;4998621;28;20252;-49
2022/09/02 08:21:35;;;;;;;3.07;1.20;;;21.30;99.90;;;;;;4999692;28;20228;-49
2022/09/02 08:24:05;;;;;;;2.17;0.90;;;21.50;99.90;;;;;;4992290;28;20229;-49
2022/09/02 08:26:35;;;;;;;1.77;0.90;;;21.60;99.90;;;;;;4993746;28;20717;-49
2022/09/02 08:29:04;;;;;;;2.10;0.90;;;21.70;99.90;;;;;;4994508;28;20237;-48
2022/09/02 08:31:33;;;;;;;1.10;0.93;;;22.00;99.90;;;;;;4991244;28;20241;-51
2022/09/02 08:34:01;;;;;;;1.87;0.90;;;21.70;99.90;;;;;;4991147;28;20237;-48
2022/09/02 08:36:29;;;;;;;2.67;0.97;;;21.80;99.90;;;;;;5000151;28;20260;-50
2022/09/02 08:38:57;;;;;;;1.13;0.93;;;22.00;99.90;;;;;;4997403;28;20588;-50
2022/09/02 08:41:32;;;;;;;1.90;0.90;;;22.20;99.90;;;;;;4998729;28;20243;-50
2022/09/02 08:44:01;;;;;;;1.53;0.70;;;22.20;99.90;;;;;;4996805;28;20263;-48
2022/09/02 08:46:32;;;;;;;2.27;1.00;;;22.20;99.90;;;;;;4995814;28;20245;-51
2022/09/02 08:49:05;;;;;;;1.37;0.90;;;22.10;99.90;;;;;;4997445;28;20275;-49
2022/09/02 08:51:36;;;;;;;1.43;0.90;;;22.30;99.90;;;;;;4998036;28;20292;-50
2022/09/02 08:54:08;;;;;;;0.80;0.80;;;22.20;99.90;;;;;;4999485;28;20639;-50
2022/09/02 08:56:37;;;;;;;2.10;1.07;;;22.30;99.90;;;;;;4991702;28;20221;-49
2022/09/02 08:59:08;;;;;;;1.60;1.20;;;22.30;99.90;;;;;;4994703;28;20701;-51
2022/09/02 09:01:48;;;;;;;2.23;0.90;;;22.50;99.90;;;;;;4994248;28;20229;-48
2022/09/02 09:04:21;;;;;;;0.80;0.80;;;22.70;99.90;;;;;;4998540;28;20233;-50
2022/09/02 09:07:08;;;;;;;2.07;0.83;;;22.90;99.90;;;;;;5001895;28;20247;-48
2022/09/02 09:09:53;;;;;;;2.17;1.00;;;22.80;99.90;;;;;;4999717;28;20328;-49
2022/09/02 09:12:34;;;;;;;1.60;0.77;;;22.90;99.90;;;;;;5004188;28;20225;-51
2022/09/02 09:15:09;;;;;;;1.07;0.87;;;23.10;99.90;;;;;;5000925;28;20315;-49
2022/09/02 09:17:45;;;;;;;3.60;1.00;;;23.30;99.90;;;;;;5001807;28;20232;-51
2022/09/02 09:20:18;;;;;;;4.53;0.77;;;23.50;99.90;;;;;;5001455;28;20236;-51
2022/09/02 09:22:48;;;;;;;1.10;0.90;;;23.70;99.90;;;;;;4997891;28;21326;-50
2022/09/02 09:25:18;;;;;;;2.47;0.90;;;23.70;99.90;;;;;;4997682;28;20235;-52
2022/09/02 09:27:47;;;;;;;2.77;0.97;;;23.90;99.90;;;;;;4994503;28;20233;-50
2022/09/02 09:30:15;;;;;;;2.00;0.70;;;24.00;99.90;;;;;;4995865;28;20238;-48
2022/09/02 09:32:46;;;;;;;1.63;0.87;;;23.80;99.90;;;;;;5000158;28;20236;-52
2022/09/02 09:35:15;;;;;;;1.37;0.97;;;23.70;99.90;;;;;;4998986;28;20234;-50
2022/09/02 09:37:46;;;;;;;2.50;0.80;;;23.80;99.90;;;;;;4998444;28;20241;-51
2022/09/02 09:40:29;;;;;;;0.67;0.60;;;23.80;99.90;;;;;;4999461;28;20621;-51
2022/09/02 09:43:12;;;;;;;2.90;0.97;;;23.50;99.90;;;;;;4999521;28;20251;-51
2022/09/02 09:45:44;;;;;;;1.67;0.80;;;23.70;99.90;;;;;;4998900;28;20236;-51
2022/09/02 09:48:24;;;;;;;1.03;0.70;;;23.90;99.90;;;;;;4999340;28;20647;-48
2022/09/02 09:51:12;;;;;;;2.23;0.90;;;23.90;99.90;;;;;;5000017;28;20226;-50
2022/09/02 09:53:40;;;;;;;1.80;0.77;;;24.00;99.90;;;;;;4996341;28;20229;-52
2022/09/02 09:56:25;;;;;;;2.90;1.00;;;24.30;99.90;;;;;;4995635;28;20228;-50
2022/09/02 09:58:54;;;;;;;1.13;0.70;;;23.90;99.90;;;;;;4999838;28;20694;-49
2022/09/02 10:01:25;;;;;;;0.70;0.70;;;23.90;99.90;;;;;;5005137;28;20712;-50
2022/09/02 10:03:56;;;;;;;0.80;0.80;;;24.10;99.90;;;;;;5013936;28;20256;-49
2022/09/02 10:06:36;;;;;;;1.07;0.97;;;24.10;99.90;;;;;;5013295;28;20236;-50
2022/09/02 10:09:15;;;;;;;1.60;0.80;;;24.20;99.90;;;;;;5013686;28;20317;-52
2022/09/02 10:11:56;;;;;;;1.17;0.87;;;24.50;99.90;;;;;;5015714;28;20743;-51
2022/09/02 10:14:33;;;;;;;1.30;0.90;;;24.30;99.90;;;;;;5016348;28;20347;-51
2022/09/02 10:17:11;;;;;;;1.93;0.80;;;24.20;99.90;;;;;;5014026;28;20307;-51
2022/09/02 10:19:48;;;;;;;2.37;0.63;;;24.20;99.90;;;;;;5013009;28;20345;-51
2022/09/02 10:22:46;;;;;;;1.10;0.77;;;24.50;99.90;;;;;;5015215;28;20244;-51
2022/09/02 10:25:33;;;;;;;3.47;1.00;;;24.60;99.90;;;;;;5014581;28;20296;-50
2022/09/02 10:28:14;;;;;;;2.17;0.70;;;24.70;99.90;;;;;;5015044;28;20233;-49
2022/09/02 10:30:55;;;;;;;1.10;0.90;;;24.80;99.90;;;;;;5009972;28;20793;-51
2022/09/02 10:33:35;;;;;;;2.10;0.90;;;24.60;99.90;;;;;;4995252;28;20246;-50
2022/09/02 10:36:11;;;;;;;0.70;0.70;;;24.60;99.90;;;;;;4996958;28;20246;-51
2022/09/02 10:38:49;;;;;;;1.37;0.80;;;24.70;99.90;;;;;;4994476;28;20815;-50
2022/09/02 10:41:34;;;;;;;2.23;0.70;;;24.60;99.90;;;;;;4994140;28;20258;-49
2022/09/02 10:44:23;;;;;;;0.97;0.77;;;24.60;99.90;;;;;;4994765;28;20319;-51
2022/09/02 10:47:00;;;;;;;1.47;0.90;;;24.90;99.90;;;;;;4993422;28;20576;-50
2022/09/02 10:49:46;;;;;;;1.90;0.70;;;25.20;99.90;;;;;;4994559;28;20266;-50
2022/09/02 10:52:29;;;;;;;1.87;0.80;;;25.40;99.90;;;;;;4993558;28;20591;-52
2022/09/02 10:55:06;;;;;;;2.77;0.73;;;25.50;99.90;;;;;;4994206;28;20573;-52
2022/09/02 10:57:45;;;;;;;1.30;0.90;;;25.20;99.90;;;;;;4993537;28;20270;-50
2022/09/02 11:00:16;;;;;;;2.10;0.73;;;25.30;99.90;;;;;;4991647;28;20231;-51
2022/09/02 11:02:51;;;;;;;1.67;0.70;;;25.00;99.90;;;;;;4994256;28;20325;-51
2022/09/02 11:05:23;;;;;;;0.80;0.63;;;25.20;99.90;;;;;;4994402;28;21465;-51
2022/09/02 11:07:55;;;;;;;1.10;0.70;;;25.10;99.90;;;;;;4996685;28;20746;-51
2022/09/02 11:10:27;;;;;;;1.13;0.63;;;25.20;99.90;;;;;;4995430;28;20738;-49
2022/09/02 11:13:03;;;;;;;1.37;0.93;;;25.20;99.90;;;;;;4994265;28;20223;-49
2022/09/02 11:15:41;;;;;;;2.90;0.83;;;25.40;99.90;;;;;;5002084;28;20239;-52
2022/09/02 11:18:22;;;;;;;1.33;0.80;;;25.70;99.90;;;;;;5000648;28;20764;-50
2022/09/02 11:21:00;;;;;;;1.00;0.70;;;25.40;99.90;;;;;;5001141;28;20274;-50
2022/09/02 11:23:39;;;;;;;3.33;0.80;;;25.20;99.90;;;;;;5000422;28;20231;-51
2022/09/02 11:26:14;;;;;;;1.03;0.80;;;25.40;99.90;;;;;;4989116;28;20244;-50
2022/09/02 11:28:52;;;;;;;2.30;0.90;;;25.40;99.90;;;;;;4990448;28;20281;-51
2022/09/02 11:31:29;;;;;;;1.17;0.70;;;25.50;99.90;;;;;;4989537;28;21148;-49
2022/09/02 11:34:16;;;;;;;1.00;0.87;;;25.40;99.90;;;;;;4995501;28;20247;-52
2022/09/02 11:36:44;;;;;;;2.57;0.70;;;24.60;99.90;;;;;;4993794;28;20312;-51
2022/09/02 11:39:18;;;;;;;1.07;0.60;;;24.20;99.90;;;;;;4996915;28;20233;-50
2022/09/02 11:42:15;;;;;;;3.87;0.73;;;24.40;99.90;;;;;;4998617;28;20777;-49
2022/09/02 11:45:16;;;;;;;0.93;0.70;;;24.60;99.90;;;;;;5001909;28;20652;-52
2022/09/02 11:48:06;;;;;;;2.40;0.80;;;24.70;99.90;;;;;;4997483;28;20270;-51
2022/09/02 11:50:52;;;;;;;2.77;1.00;;;24.30;99.90;;;;;;4999838;28;20225;-50
2022/09/02 11:53:26;;;;;;;1.03;0.80;;;23.80;99.90;;;;;;5000817;28;20244;-52
2022/09/02 11:55:59;;;;;;;2.43;0.80;;;23.50;99.90;;;;;;5001002;28;20244;-52
2022/09/02 11:58:36;;;;;;;2.77;0.90;;;23.30;99.90;;;;;;5000700;28;21084;-51
2022/09/02 12:01:23;;;;;;;2.23;0.90;;;23.50;99.90;;;;;;4993798;28;20237;-50
2022/09/02 12:03:56;;;;;;;2.10;0.80;;;24.00;99.90;;;;;;4996386;28;20363;-50
2022/09/02 12:07:22;;;;;;;1.63;0.80;;;24.00;99.90;;;;;;4999045;28;20246;-51
2022/09/02 12:09:57;;;;;;;1.63;0.70;;;24.00;99.90;;;;;;4999493;28;20693;-52
2022/09/02 12:13:03;;;;;;;3.73;0.80;;;24.10;99.90;;;;;;5002349;28;20256;-51
2022/09/02 12:15:37;;;;;;;1.90;0.80;;;24.20;99.90;;;;;;4997260;28;20248;-52
2022/09/02 12:18:29;;;;;;;2.53;0.90;;;24.20;99.90;;;;;;4995618;28;20226;-52
2022/09/02 12:21:11;;;;;;;1.50;0.87;;;24.40;99.90;;;;;;4996691;28;20757;-52
2022/09/02 12:24:20;;;;;;;2.03;0.80;;;24.60;99.90;;;;;;4996267;28;20236;-52
2022/09/02 12:27:11;;;;;;;0.90;0.60;;;24.40;99.90;;;;;;4997714;28;20741;-52
2022/09/02 12:29:39;;;;;;;0.70;0.70;;;24.10;99.90;;;;;;4999499;28;20324;-51
2022/09/02 12:32:10;;;;;;;1.27;0.80;;;24.40;99.90;;;;;;5001244;28;20235;-52
2022/09/02 12:34:56;;;;;;;2.00;0.80;;;24.50;99.90;;;;;;4999640;28;20238;-52
2022/09/02 12:37:50;;;;;;;1.10;0.80;;;24.60;99.90;;;;;;5003342;28;20273;-51
2022/09/02 12:40:33;;;;;;;1.07;0.80;;;24.40;99.90;;;;;;5005324;28;20265;-50
2022/09/02 12:43:06;;;;;;;1.40;0.70;;;24.40;99.90;;;;;;5003874;28;20236;-51
2022/09/02 12:45:43;;;;;;;1.83;0.80;;;24.30;99.90;;;;;;5002871;28;21226;-51
2022/09/02 12:48:16;;;;;;;3.20;0.90;;;24.40;99.90;;;;;;5001517;28;20238;-52
2022/09/02 12:50:58;;;;;;;1.10;0.80;;;24.40;99.90;;;;;;5001905;28;20265;-51
2022/09/02 12:53:35;;;;;;;1.83;1.00;;;24.30;99.90;;;;;;5001677;28;20695;-51
2022/09/02 12:56:08;;;;;;;2.90;0.90;;;24.30;99.90;;;;;;5002993;28;20229;-50
2022/09/02 12:58:45;;;;;;;1.80;0.80;;;24.30;99.90;;;;;;5003082;28;20851;-52
2022/09/02 13:01:19;;;;;;;1.60;0.80;;;24.40;99.90;;;;;;5003955;28;20645;-52
2022/09/02 13:03:59;;;;;;;1.90;0.80;;;24.40;99.90;;;;;;5003799;28;21203;-51
2022/09/02 13:06:38;;;;;;;1.00;0.90;;;24.20;99.90;;;;;;5001411;28;20240;-51
2022/09/02 13:09:45;;;;;;;1.67;0.90;;;24.10;99.90;;;;;;5002100;28;20716;-51
2022/09/02 13:12:54;;;;;;;3.77;0.90;;;23.70;99.90;;;;;;4965130;28;20232;-51
2022/09/02 13:15:58;;;;;;;1.97;0.90;;;23.80;99.90;;;;;;4997343;28;20713;-51
2022/09/02 13:19:06;;;;;;;1.37;1.00;;;23.80;99.90;;;;;;4999627;28;20246;-51
2022/09/02 13:22:03;;;;;;;3.00;0.93;;;24.10;99.90;;;;;;4997338;28;20236;-52
2022/09/02 13:24:57;;;;;;;0.80;0.70;;;23.80;99.90;;;;;;5002886;28;20699;-51